Main page
METAR-TAF:

METAR-TAF

Airports :

Nukus Airport

Nukus, Uzbekistan

latitude: 42-28-48N, longitude: 059-37-48E, elevation: 77 m

Current weather observation

The report was made 43 minutes ago, at 21:30 UTC
Wind 2 kt from the Southwest
Temperature 26°C
Humidity 42%
Pressure 1006 hPa
Visibility 10 km or more
no clouds below 1500 m and no cumulonimbus

METAR: UTNN 012130Z 23002KT CAVOK 26/12 Q1006 R33/CLRD60 NOSIG

Time: 03:13 (22:13 UTC)

Forecast

The report was made 5 hours and 13 minutes ago, at 17:00 UTC
Forecast valid from 01 at 18 UTC to 02 at 18 UTC
Wind 4 kt from variable directions
Visibility 10 km or more
no clouds below 1500 m and no cumulonimbus

TAF: UTNN 011700Z 0118/0218 VRB04KT CAVOK

Weather observations and forecasts of more than 4000 airports (METAR and TAF reports).

The available stations are represented by yellow and red dots on the map.

Hover mouse over dot to see the name of the station.

Then click to see weather observations and forecasts.

To change the map : click on the green buttons with a black cross to zoom in, on the green button with a dash to zoom out, or on the green arrows for adjacent maps.


METAR-TAF: